createdAt,value
2018-04-29T00:00:16.055Z,7.83
2018-04-29T00:02:43.830Z,10.90
2018-04-29T00:05:11.597Z,11.10
2018-04-29T00:07:39.367Z,14.63
2018-04-29T00:10:07.159Z,14.87
2018-04-29T00:12:35.651Z,10.50
2018-04-29T00:15:03.460Z,10.10
2018-04-29T00:17:31.227Z,9.93
2018-04-29T00:19:58.998Z,14.20
2018-04-29T00:22:26.754Z,9.67
2018-04-29T00:24:55.270Z,12.97
2018-04-29T00:27:23.831Z,14.03
2018-04-29T00:29:51.577Z,15.87
2018-04-29T00:32:19.368Z,16.00
2018-04-29T00:34:47.904Z,20.83
2018-04-29T00:37:15.661Z,15.27
2018-04-29T00:39:43.447Z,13.53
2018-04-29T00:42:11.191Z,16.93
2018-04-29T00:44:38.989Z,15.50
2018-04-29T00:47:06.734Z,17.87
2018-04-29T00:49:34.497Z,21.20
2018-04-29T00:52:07.385Z,22.77
2018-04-29T00:54:35.208Z,21.63
2018-04-29T00:57:02.969Z,18.07
2018-04-29T00:59:30.794Z,17.77
2018-04-29T01:01:58.572Z,17.03
2018-04-29T01:04:27.119Z,18.03
2018-04-29T01:06:54.883Z,18.57
2018-04-29T01:09:22.622Z,23.93
2018-04-29T01:11:50.386Z,18.70
2018-04-29T01:14:18.182Z,17.23
2018-04-29T01:16:45.978Z,16.27
2018-04-29T01:19:14.532Z,21.20
2018-04-29T01:21:42.298Z,17.47
2018-04-29T01:24:10.096Z,19.70
2018-04-29T01:26:38.012Z,19.77
2018-04-29T01:29:05.814Z,22.80
2018-04-29T01:31:34.405Z,18.77
2018-04-29T01:34:03.014Z,22.93
2018-04-29T01:36:30.870Z,25.27
2018-04-29T01:38:58.707Z,20.70
2018-04-29T01:41:26.586Z,25.10
2018-04-29T01:43:54.385Z,21.30
2018-04-29T01:46:22.195Z,22.20
2018-04-29T01:48:50.776Z,24.73
2018-04-29T01:51:19.244Z,18.87
2018-04-29T01:53:46.942Z,21.83
2018-04-29T01:56:15.395Z,18.80
2018-04-29T01:58:43.077Z,20.33
2018-04-29T02:01:11.526Z,21.23
2018-04-29T02:03:39.204Z,22.97
2018-04-29T02:06:06.884Z,20.00
2018-04-29T02:08:35.354Z,22.70
2018-04-29T02:11:03.790Z,24.23
2018-04-29T02:13:31.488Z,22.20
2018-04-29T02:15:59.150Z,21.87
2018-04-29T02:18:26.869Z,21.33
2018-04-29T02:20:54.546Z,27.03
2018-04-29T02:23:22.232Z,23.30
2018-04-29T02:25:49.927Z,22.87
2018-04-29T02:28:17.574Z,25.13
2018-04-29T02:30:46.025Z,22.57
2018-04-29T02:33:13.705Z,22.83
2018-04-29T02:35:42.128Z,17.87
2018-04-29T02:38:09.798Z,18.93
2018-04-29T02:40:37.491Z,21.97
2018-04-29T02:43:05.163Z,17.10
2018-04-29T02:45:33.704Z,19.90
2018-04-29T02:48:01.403Z,19.40
2018-04-29T02:50:29.853Z,21.97
2018-04-29T02:52:57.537Z,16.07
2018-04-29T02:55:25.206Z,19.27
2018-04-29T02:57:53.619Z,19.07
2018-04-29T03:00:21.295Z,17.67
2018-04-29T03:02:48.949Z,20.63
2018-04-29T03:05:16.617Z,19.40
2018-04-29T03:07:44.281Z,24.37
2018-04-29T03:10:11.972Z,16.27
2018-04-29T03:12:39.646Z,19.40
2018-04-29T03:15:07.392Z,19.37
2018-04-29T03:17:35.094Z,23.50
2018-04-29T03:20:02.755Z,17.13
2018-04-29T03:22:31.207Z,13.03
2018-04-29T03:24:58.903Z,15.90
2018-04-29T03:27:26.597Z,15.57
2018-04-29T03:29:54.276Z,11.57
2018-04-29T03:32:21.976Z,11.23
2018-04-29T03:34:50.398Z,17.73
2018-04-29T03:37:18.264Z,9.00
2018-04-29T03:39:46.074Z,14.77
2018-04-29T03:42:13.825Z,12.77
2018-04-29T03:44:42.340Z,15.87
2018-04-29T03:47:10.158Z,17.10
2018-04-29T03:49:37.902Z,15.80
2018-04-29T03:52:05.748Z,18.73
2018-04-29T03:54:33.572Z,21.20
2018-04-29T03:57:14.069Z,26.90
2018-04-29T03:59:53.783Z,24.23
2018-04-29T04:02:33.581Z,22.90
2018-04-29T04:05:01.354Z,27.13
2018-04-29T04:07:29.132Z,25.90
2018-04-29T04:09:57.684Z,32.47
2018-04-29T04:12:25.495Z,24.03
2018-04-29T04:14:54.041Z,25.73
2018-04-29T04:17:21.898Z,21.27
2018-04-29T04:19:49.686Z,23.13
2018-04-29T04:22:17.510Z,23.20
2018-04-29T04:24:45.294Z,25.83
2018-04-29T04:27:13.082Z,23.40
2018-04-29T04:29:41.651Z,23.27
2018-04-29T04:32:09.462Z,19.93
2018-04-29T04:34:37.276Z,23.87
2018-04-29T04:37:05.112Z,25.60
2018-04-29T04:39:32.920Z,22.87
2018-04-29T04:42:01.516Z,26.83
2018-04-29T04:44:29.351Z,24.40
2018-04-29T04:46:57.179Z,22.43
2018-04-29T04:49:24.994Z,20.60
2018-04-29T04:51:53.587Z,22.50
2018-04-29T04:54:22.157Z,21.67
2018-04-29T04:56:50.723Z,20.87
2018-04-29T04:59:18.538Z,25.13
2018-04-29T05:01:46.359Z,25.53
2018-04-29T05:04:14.181Z,21.20
2018-04-29T05:06:42.076Z,21.43
2018-04-29T05:09:09.910Z,18.33
2018-04-29T05:11:37.753Z,26.17
2018-04-29T05:14:05.623Z,27.07
2018-04-29T05:16:33.448Z,25.10
2018-04-29T05:19:01.309Z,30.83
2018-04-29T05:21:29.236Z,26.37
2018-04-29T05:23:57.096Z,20.17
2018-04-29T05:26:24.943Z,29.27
2018-04-29T05:28:53.500Z,22.47
2018-04-29T05:31:21.349Z,25.63
2018-04-29T05:33:49.257Z,23.47
2018-04-29T05:36:17.088Z,22.77
2018-04-29T05:38:44.895Z,28.53
2018-04-29T05:41:12.720Z,22.57
2018-04-29T05:43:40.523Z,25.27
2018-04-29T05:46:08.370Z,23.97
2018-04-29T05:48:36.942Z,25.67
2018-04-29T05:51:05.507Z,27.50
2018-04-29T05:53:33.304Z,22.37
2018-04-29T05:56:01.002Z,22.37
2018-04-29T05:58:28.783Z,24.47
2018-04-29T06:00:56.588Z,21.77
2018-04-29T06:03:25.174Z,25.37
2018-04-29T06:05:53.796Z,24.33
2018-04-29T06:08:21.591Z,20.57
2018-04-29T06:10:49.388Z,29.23
2018-04-29T06:13:18.147Z,22.60
2018-04-29T06:15:46.096Z,24.00
2018-04-29T06:18:13.968Z,24.43
2018-04-29T06:20:41.781Z,26.93
2018-04-29T06:23:09.607Z,24.53
2018-04-29T06:25:37.426Z,23.90
2018-04-29T06:28:05.269Z,20.77
2018-04-29T06:30:33.124Z,24.87
2018-04-29T06:33:01.742Z,27.63
2018-04-29T06:35:29.546Z,25.03
2018-04-29T06:37:57.366Z,24.03
2018-04-29T06:40:25.166Z,23.17
2018-04-29T06:42:53.020Z,26.57
2018-04-29T06:45:20.844Z,21.50
2018-04-29T06:47:48.665Z,21.03
2018-04-29T06:50:16.470Z,20.63
2018-04-29T06:52:44.284Z,19.27
2018-04-29T06:55:12.075Z,20.83
2018-04-29T06:57:40.667Z,20.03
2018-04-29T07:00:09.246Z,20.10
2018-04-29T07:02:37.819Z,21.10
2018-04-29T07:05:05.675Z,24.57
2018-04-29T07:07:33.471Z,20.57
2018-04-29T07:10:02.279Z,19.57
2018-04-29T07:12:30.133Z,24.73
2018-04-29T07:14:57.938Z,22.30
2018-04-29T07:17:25.753Z,22.00
2018-04-29T07:19:53.608Z,22.93
2018-04-29T07:22:22.195Z,25.00
2018-04-29T07:24:50.636Z,26.37
2018-04-29T07:27:18.498Z,21.50
2018-04-29T07:29:46.180Z,28.37
2018-04-29T07:32:13.854Z,29.03
2018-04-29T07:34:42.380Z,30.00
2018-04-29T07:37:10.140Z,30.27
2018-04-29T07:39:38.586Z,25.27
2018-04-29T07:42:06.999Z,33.60
2018-04-29T07:44:34.857Z,38.70
2018-04-29T07:47:02.589Z,34.37
2018-04-29T07:49:31.047Z,30.57
2018-04-29T07:51:58.745Z,30.53
2018-04-29T07:54:27.252Z,31.17
2018-04-29T07:56:54.909Z,32.60
2018-04-29T07:59:22.638Z,34.27
2018-04-29T08:01:51.066Z,33.50
2018-04-29T08:04:18.723Z,32.33
2018-04-29T08:06:46.407Z,27.20
2018-04-29T08:09:14.108Z,27.83
2018-04-29T08:11:42.588Z,29.90
2018-04-29T08:14:11.010Z,30.23
2018-04-29T08:16:38.675Z,30.00
2018-04-29T08:19:06.349Z,28.03
2018-04-29T08:21:34.001Z,35.43
2018-04-29T08:24:01.679Z,33.80
2018-04-29T08:26:29.369Z,22.10
2018-04-29T08:28:57.804Z,20.33
2018-04-29T08:31:25.453Z,13.87
2018-04-29T08:33:53.119Z,18.20
2018-04-29T08:36:20.883Z,14.40
2018-04-29T08:38:48.517Z,10.73
2018-04-29T08:41:16.199Z,11.07
2018-04-29T08:43:43.892Z,14.97
2018-04-29T08:46:11.546Z,12.73
2018-04-29T08:48:39.428Z,13.90
2018-04-29T08:51:07.207Z,16.53
2018-04-29T08:53:34.987Z,12.47
2018-04-29T08:56:02.858Z,12.87
2018-04-29T08:58:30.598Z,19.50
2018-04-29T09:00:58.449Z,15.93
2018-04-29T09:03:27.062Z,12.83
2018-04-29T09:05:55.080Z,12.07
2018-04-29T09:08:22.857Z,12.17
2018-04-29T09:10:51.406Z,9.70
2018-04-29T09:13:19.186Z,14.00
2018-04-29T09:15:46.947Z,10.10
2018-04-29T09:18:14.736Z,9.83
2018-04-29T09:20:43.280Z,12.23
2018-04-29T09:23:11.041Z,11.23
2018-04-29T09:25:38.827Z,13.37
2018-04-29T09:28:07.349Z,12.23
2018-04-29T09:30:35.112Z,9.70
2018-04-29T09:33:02.893Z,9.00
2018-04-29T09:35:30.638Z,11.77
2018-04-29T09:37:58.476Z,9.67
2018-04-29T09:40:27.089Z,10.10
2018-04-29T09:42:54.880Z,9.33
2018-04-29T09:45:22.652Z,8.33
2018-04-29T09:47:50.433Z,13.47
2018-04-29T09:50:18.277Z,9.57
2018-04-29T09:52:46.016Z,14.63
2018-04-29T09:55:13.766Z,10.03
2018-04-29T09:57:41.547Z,14.57
2018-04-29T10:00:09.303Z,9.83
2018-04-29T10:02:37.129Z,9.60
2018-04-29T10:05:05.656Z,7.37
2018-04-29T10:07:33.461Z,6.70
2018-04-29T10:10:01.922Z,11.70
2018-04-29T10:12:29.604Z,10.83
2018-04-29T10:14:57.292Z,10.33
2018-04-29T10:17:25.799Z,8.83
2018-04-29T10:19:53.567Z,9.67
2018-04-29T10:22:21.362Z,10.60
2018-04-29T10:24:49.165Z,13.30
2018-04-29T10:27:16.916Z,13.00
2018-04-29T10:29:45.380Z,9.53
2018-04-29T10:32:13.037Z,13.13
2018-04-29T10:34:40.699Z,9.90
2018-04-29T10:37:08.343Z,13.30
2018-04-29T10:39:36.045Z,9.83
2018-04-29T10:42:04.477Z,8.47
2018-04-29T10:44:32.177Z,10.27
2018-04-29T10:47:00.611Z,12.13
2018-04-29T10:49:28.276Z,8.93
2018-04-29T10:51:55.940Z,11.90
2018-04-29T10:54:23.611Z,14.77
2018-04-29T10:56:51.318Z,11.87
2018-04-29T10:59:19.738Z,15.13
2018-04-29T11:01:48.989Z,11.27
2018-04-29T11:04:17.472Z,12.47
2018-04-29T11:06:45.082Z,9.57
2018-04-29T11:09:12.788Z,11.03
2018-04-29T11:11:41.260Z,15.57
2018-04-29T11:14:09.675Z,9.63
2018-04-29T11:16:37.330Z,17.53
2018-04-29T11:19:05.027Z,14.00
2018-04-29T11:21:32.728Z,12.30
2018-04-29T11:24:01.190Z,11.53
2018-04-29T11:26:28.906Z,13.67
2018-04-29T11:28:56.596Z,15.53
2018-04-29T11:31:24.245Z,11.13
2018-04-29T11:33:51.979Z,15.47
2018-04-29T11:36:20.374Z,13.77
2018-04-29T11:38:48.055Z,12.43
2018-04-29T11:41:15.729Z,13.50
2018-04-29T11:43:43.381Z,13.13
2018-04-29T11:46:11.070Z,11.73
2018-04-29T11:48:39.483Z,13.07
2018-04-29T11:51:07.306Z,10.50
2018-04-29T11:53:35.908Z,11.47
2018-04-29T11:56:03.641Z,13.97
2018-04-29T11:58:31.373Z,19.50
2018-04-29T12:00:59.058Z,13.77
2018-04-29T12:03:26.722Z,15.70
2018-04-29T12:05:54.436Z,14.93
2018-04-29T12:08:22.068Z,11.30
2018-04-29T12:10:50.567Z,10.07
2018-04-29T12:13:18.251Z,13.50
2018-04-29T12:15:45.894Z,17.93
2018-04-29T12:18:13.699Z,13.27
2018-04-29T12:20:41.382Z,19.60
2018-04-29T12:23:09.141Z,12.33
2018-04-29T12:25:37.580Z,10.93
2018-04-29T12:28:05.300Z,11.83
2018-04-29T12:30:33.758Z,10.97
2018-04-29T12:33:01.429Z,13.43
2018-04-29T12:35:29.871Z,10.83
2018-04-29T12:37:57.506Z,11.20
2018-04-29T12:40:25.190Z,9.73
2018-04-29T12:42:52.851Z,9.87
2018-04-29T12:45:20.482Z,10.93
2018-04-29T12:47:48.130Z,15.30
2018-04-29T12:50:16.549Z,13.27
2018-04-29T12:52:44.181Z,15.20
